Columbus, Illinois
Current Conditions -  °F | °C
As of 10:54 PM on Thursday 30 Oct 2014 (Local Time) from KUIN Reporting Station
Overcast Overcast  
Wind Chill: 43°   Ceiling: 9000
Heat Index: 46°   Visibility: 10mi
Dew Point: 42°   Wind: 6mph
Humidity: 86%   Direction: 20°NNE
Pressure: 30.08"   Gusts: NA
Location:  39.9302°N, 91.3035°W
Report Text: KUIN 310354Z AUTO 02005KT 10SM OVC090 08/06 A3008 RMK AO2 SLP187 T00780056
Loading
Personal Weather Stations






























Interactive Weather Map
Tropical Storm Tracking
New forecast layout! Learn more

10-Day Weather Forecast

Advertisements
Track Severe Weather on mobile